N222HL KRDU-KDAY
Flight info
| Callsign | N222HL |
|---|---|
| Flight time | N/A |
| Altitude | 40000 |
| Route | SHPRD4 SHPRD HMV SITTR TARCI LAYED APE DANEI3 |
| Aircraft | CL60/M-SBDE1E2E3FGHIJ1J4J5J7M3RWXYZ/LB1V1D1 |
Departure
| Time | 2026-05-06 00:47 |
|---|---|
| Airport | Raleigh-Durham International Airport (KRDU) |
Arrival
| Time | N/A |
|---|---|
| Airport | James M. Cox Dayton International Airport (KDAY) |
| Time | Latitude | Longitude | Altitude | Speed | Heading |
|---|---|---|---|---|---|
| 2026-05-06 00:34 | 35.88052 | -78.78243 | 423 ft | 0 kts | 48° |
| 2026-05-06 00:41 | 35.88056 | -78.78237 | 423 ft | 4 kts | 52° |
| 2026-05-06 00:41 | 35.88080 | -78.78191 | 422 ft | 2 kts | 59° |
| 2026-05-06 00:42 | 35.88093 | -78.78165 | 422 ft | 2 kts | 59° |
| 2026-05-06 00:42 | 35.88103 | -78.78142 | 421 ft | 0 kts | 60° |
| 2026-05-06 00:42 | 35.88106 | -78.78137 | 421 ft | 0 kts | 61° |
| 2026-05-06 00:42 | 35.88109 | -78.78130 | 421 ft | 0 kts | 61° |
| 2026-05-06 00:43 | 35.88109 | -78.78095 | 420 ft | 9 kts | 114° |
| 2026-05-06 00:43 | 35.88061 | -78.78061 | 421 ft | 7 kts | 201° |
| 2026-05-06 00:43 | 35.88007 | -78.78068 | 422 ft | 8 kts | 166° |
| 2026-05-06 00:44 | 35.87989 | -78.78052 | 422 ft | 0 kts | 130° |
| 2026-05-06 00:46 | 35.87958 | -78.78008 | 421 ft | 10 kts | 135° |
| 2026-05-06 00:46 | 35.87886 | -78.77979 | 419 ft | 12 kts | 215° |
| 2026-05-06 00:47 | 35.87798 | -78.78085 | 424 ft | 37 kts | 224° |
| 2026-05-06 00:47 | 35.87406 | -78.78570 | 427 ft | 123 kts | 224° |
| 2026-05-06 00:47 | 35.86697 | -78.79458 | 936 ft | 158 kts | 223° |
| 2026-05-06 00:47 | 35.85955 | -78.80396 | 2001 ft | 169 kts | 222° |
| 2026-05-06 00:48 | 35.85068 | -78.81557 | 2812 ft | 207 kts | 224° |
| 2026-05-06 00:48 | 35.84041 | -78.82887 | 3970 ft | 227 kts | 225° |
| 2026-05-06 00:48 | 35.82933 | -78.84318 | 5040 ft | 247 kts | 225° |
| 2026-05-06 00:48 | 35.81697 | -78.85889 | 5674 ft | 257 kts | 225° |
| 2026-05-06 00:49 | 35.80444 | -78.87470 | 5961 ft | 257 kts | 225° |
| 2026-05-06 00:49 | 35.79198 | -78.89030 | 6016 ft | 256 kts | 225° |
| 2026-05-06 00:49 | 35.77959 | -78.90579 | 6007 ft | 254 kts | 224° |
| 2026-05-06 00:49 | 35.76743 | -78.92183 | 6016 ft | 254 kts | 231° |
| 2026-05-06 00:50 | 35.75941 | -78.94161 | 6065 ft | 274 kts | 253° |
| 2026-05-06 00:50 | 35.75912 | -78.96555 | 7224 ft | 293 kts | 279° |
| 2026-05-06 00:50 | 35.76717 | -78.98736 | 8985 ft | 288 kts | 302° |
| 2026-05-06 00:50 | 35.78089 | -79.00431 | 10484 ft | 290 kts | 315° |
| 2026-05-06 00:51 | 35.79631 | -79.01998 | 11925 ft | 291 kts | 316° |
| 2026-05-06 00:51 | 35.81179 | -79.03577 | 13238 ft | 293 kts | 316° |
| 2026-05-06 00:51 | 35.82734 | -79.05166 | 14481 ft | 295 kts | 316° |
| 2026-05-06 00:51 | 35.84291 | -79.06759 | 15605 ft | 299 kts | 316° |
| 2026-05-06 00:52 | 35.85898 | -79.08404 | 16711 ft | 303 kts | 316° |
| 2026-05-06 00:52 | 35.87525 | -79.10071 | 17760 ft | 307 kts | 316° |
| 2026-05-06 00:52 | 35.89143 | -79.11729 | 18734 ft | 310 kts | 316° |
| 2026-05-06 00:52 | 35.90801 | -79.13431 | 19759 ft | 311 kts | 316° |
| 2026-05-06 00:53 | 35.92466 | -79.15140 | 20701 ft | 313 kts | 316° |
| 2026-05-06 00:53 | 35.94136 | -79.16856 | 21605 ft | 315 kts | 316° |
| 2026-05-06 00:53 | 35.95804 | -79.18570 | 22429 ft | 319 kts | 316° |
| 2026-05-06 00:53 | 35.97532 | -79.20350 | 22869 ft | 328 kts | 317° |
| 2026-05-06 00:54 | 35.99284 | -79.22154 | 23012 ft | 327 kts | 316° |
| 2026-05-06 00:54 | 36.01034 | -79.23943 | 23027 ft | 324 kts | 318° |
| 2026-05-06 00:54 | 36.02945 | -79.25480 | 23108 ft | 339 kts | 325° |
| 2026-05-06 00:54 | 36.05018 | -79.26940 | 23912 ft | 342 kts | 326° |
| 2026-05-06 00:55 | 36.07056 | -79.28351 | 25072 ft | 335 kts | 326° |
| 2026-05-06 00:55 | 36.09058 | -79.29723 | 26094 ft | 331 kts | 326° |
| 2026-05-06 00:55 | 36.11054 | -79.31084 | 26929 ft | 331 kts | 326° |
| 2026-05-06 00:55 | 36.13085 | -79.32465 | 27620 ft | 335 kts | 326° |
| 2026-05-06 00:56 | 36.15117 | -79.33855 | 28306 ft | 337 kts | 326° |
| 2026-05-06 00:56 | 36.17175 | -79.35262 | 28981 ft | 340 kts | 326° |
| 2026-05-06 00:56 | 36.19267 | -79.36691 | 29631 ft | 342 kts | 326° |
| 2026-05-06 00:56 | 36.21395 | -79.38151 | 30229 ft | 344 kts | 326° |
| 2026-05-06 00:57 | 36.23534 | -79.39629 | 30841 ft | 344 kts | 326° |
| 2026-05-06 00:57 | 36.25679 | -79.41116 | 31447 ft | 344 kts | 326° |
| 2026-05-06 00:57 | 36.27603 | -79.42805 | 32040 ft | 338 kts | 316° |
| 2026-05-06 00:57 | 36.29355 | -79.44789 | 32573 ft | 337 kts | 316° |
| 2026-05-06 00:58 | 36.31113 | -79.46735 | 33033 ft | 338 kts | 316° |
| 2026-05-06 00:58 | 36.32891 | -79.48692 | 33535 ft | 338 kts | 316° |
| 2026-05-06 00:58 | 36.34656 | -79.50636 | 34117 ft | 336 kts | 316° |
| 2026-05-06 00:58 | 36.36411 | -79.52569 | 34704 ft | 334 kts | 316° |
| 2026-05-06 00:59 | 36.38165 | -79.54501 | 35317 ft | 331 kts | 316° |
| 2026-05-06 00:59 | 36.39871 | -79.56381 | 35894 ft | 328 kts | 316° |
| 2026-05-06 00:59 | 36.41579 | -79.58265 | 36430 ft | 326 kts | 315° |
| 2026-05-06 00:59 | 36.43267 | -79.60126 | 36887 ft | 324 kts | 316° |
| 2026-05-06 01:00 | 36.44942 | -79.61976 | 37317 ft | 323 kts | 316° |
| 2026-05-06 01:00 | 36.46637 | -79.63847 | 37729 ft | 323 kts | 316° |
| 2026-05-06 01:00 | 36.48313 | -79.65700 | 38111 ft | 322 kts | 315° |
| 2026-05-06 01:00 | 36.49989 | -79.67551 | 38460 ft | 323 kts | 316° |
| 2026-05-06 01:01 | 36.51654 | -79.69393 | 38880 ft | 321 kts | 315° |
| 2026-05-06 01:01 | 36.53328 | -79.71245 | 39228 ft | 320 kts | 315° |
| 2026-05-06 01:01 | 36.54989 | -79.73083 | 39582 ft | 319 kts | 315° |
| 2026-05-06 01:01 | 36.56631 | -79.74902 | 39863 ft | 320 kts | 315° |
| 2026-05-06 01:02 | 36.58310 | -79.76762 | 40000 ft | 323 kts | 314° |
| 2026-05-06 01:02 | 36.61686 | -79.80508 | 40000 ft | 328 kts | 315° |
| 2026-05-06 01:03 | 36.65168 | -79.84375 | 40003 ft | 339 kts | 315° |
| 2026-05-06 01:03 | 36.68732 | -79.88339 | 39995 ft | 348 kts | 315° |
| 2026-05-06 01:04 | 36.72395 | -79.92416 | 39995 ft | 357 kts | 315° |
| 2026-05-06 01:04 | 36.76158 | -79.96608 | 39987 ft | 363 kts | 315° |
| 2026-05-06 01:05 | 36.79927 | -80.00813 | 39981 ft | 369 kts | 315° |
| 2026-05-06 01:05 | 36.83787 | -80.05125 | 39991 ft | 374 kts | 314° |
| 2026-05-06 01:06 | 36.87693 | -80.09495 | 39990 ft | 379 kts | 314° |
| 2026-05-06 01:06 | 36.91634 | -80.13911 | 39992 ft | 385 kts | 314° |
| 2026-05-06 01:07 | 36.95641 | -80.18407 | 39998 ft | 390 kts | 314° |
| 2026-05-06 01:07 | 36.99694 | -80.22961 | 40002 ft | 394 kts | 315° |
| 2026-05-06 01:08 | 37.03786 | -80.27563 | 40011 ft | 394 kts | 315° |
| 2026-05-06 01:08 | 37.07868 | -80.32163 | 40020 ft | 395 kts | 315° |
| 2026-05-06 01:09 | 37.11987 | -80.36812 | 40036 ft | 395 kts | 314° |
| 2026-05-06 01:09 | 37.16066 | -80.41424 | 40026 ft | 395 kts | 314° |
| 2026-05-06 01:10 | 37.20128 | -80.46022 | 40024 ft | 394 kts | 315° |
| 2026-05-06 01:10 | 37.24176 | -80.50612 | 40025 ft | 395 kts | 314° |
| 2026-05-06 01:11 | 37.28254 | -80.55243 | 40020 ft | 395 kts | 314° |
| 2026-05-06 01:11 | 37.32324 | -80.59872 | 40006 ft | 394 kts | 314° |
| 2026-05-06 01:12 | 37.36377 | -80.64488 | 39992 ft | 395 kts | 315° |
| 2026-05-06 01:12 | 37.40432 | -80.69115 | 39996 ft | 394 kts | 314° |
| 2026-05-06 01:13 | 37.44482 | -80.73743 | 39985 ft | 394 kts | 314° |
| 2026-05-06 01:13 | 37.48549 | -80.78396 | 39973 ft | 394 kts | 314° |
| 2026-05-06 01:14 | 37.54608 | -80.85343 | 39995 ft | 393 kts | 314° |
| 2026-05-06 01:14 | 37.58639 | -80.89973 | 39998 ft | 394 kts | 313° |
| 2026-05-06 01:15 | 37.62693 | -80.94637 | 40001 ft | 393 kts | 313° |
| 2026-05-06 01:15 | 37.66717 | -80.99274 | 39998 ft | 393 kts | 314° |
| 2026-05-06 01:16 | 37.70756 | -81.03935 | 39999 ft | 393 kts | 313° |
| 2026-05-06 01:16 | 37.74783 | -81.08575 | 39993 ft | 394 kts | 314° |
| 2026-05-06 01:17 | 37.79353 | -81.12450 | 39989 ft | 404 kts | 327° |
| 2026-05-06 01:17 | 37.84733 | -81.14834 | 39976 ft | 414 kts | 335° |
| 2026-05-06 01:18 | 37.90252 | -81.16888 | 39967 ft | 414 kts | 335° |
| 2026-05-06 01:18 | 37.95787 | -81.18955 | 39968 ft | 414 kts | 335° |
| 2026-05-06 01:19 | 38.01298 | -81.21018 | 39961 ft | 415 kts | 334° |
| 2026-05-06 01:19 | 38.06852 | -81.23099 | 39969 ft | 415 kts | 335° |
| 2026-05-06 01:20 | 38.12367 | -81.25171 | 39935 ft | 415 kts | 335° |
| 2026-05-06 01:20 | 38.17906 | -81.27255 | 39934 ft | 415 kts | 335° |
| 2026-05-06 01:21 | 38.23456 | -81.29347 | 39918 ft | 414 kts | 335° |
| 2026-05-06 01:21 | 38.28696 | -81.32188 | 39923 ft | 399 kts | 321° |
| 2026-05-06 01:22 | 38.33112 | -81.36359 | 39915 ft | 394 kts | 316° |
| 2026-05-06 01:22 | 38.37420 | -81.40657 | 39908 ft | 394 kts | 316° |
| 2026-05-06 01:23 | 38.41734 | -81.44965 | 39909 ft | 394 kts | 316° |
| 2026-05-06 01:23 | 38.46034 | -81.49266 | 39893 ft | 395 kts | 316° |
| 2026-05-06 01:24 | 38.50367 | -81.53604 | 39894 ft | 394 kts | 316° |
| 2026-05-06 01:24 | 38.54725 | -81.57975 | 39894 ft | 394 kts | 316° |
| 2026-05-06 01:25 | 38.59031 | -81.62299 | 39884 ft | 394 kts | 316° |
| 2026-05-06 01:25 | 38.63361 | -81.66653 | 39876 ft | 394 kts | 315° |
| 2026-05-06 01:26 | 38.67708 | -81.71032 | 39874 ft | 393 kts | 315° |
| 2026-05-06 01:26 | 38.71981 | -81.75343 | 39872 ft | 393 kts | 315° |
| 2026-05-06 01:27 | 38.76386 | -81.79556 | 39878 ft | 399 kts | 321° |
| 2026-05-06 01:27 | 38.81500 | -81.82639 | 39864 ft | 408 kts | 327° |
| 2026-05-06 01:28 | 38.86694 | -81.85536 | 39856 ft | 407 kts | 328° |
| 2026-05-06 01:28 | 38.91896 | -81.88444 | 39857 ft | 407 kts | 328° |
| 2026-05-06 01:29 | 38.97078 | -81.91348 | 39866 ft | 407 kts | 327° |
| 2026-05-06 01:29 | 39.02287 | -81.94271 | 39849 ft | 407 kts | 327° |
| 2026-05-06 01:30 | 39.07498 | -81.97201 | 39853 ft | 407 kts | 327° |
| 2026-05-06 01:30 | 39.12723 | -82.00144 | 39846 ft | 408 kts | 327° |
| 2026-05-06 01:31 | 39.17929 | -82.03081 | 39850 ft | 408 kts | 327° |
| 2026-05-06 01:31 | 39.23110 | -82.06008 | 39866 ft | 408 kts | 327° |
| 2026-05-06 01:32 | 39.28308 | -82.08951 | 39857 ft | 408 kts | 327° |
| 2026-05-06 01:32 | 39.33390 | -82.11813 | 39821 ft | 378 kts | 326° |
| 2026-05-06 01:33 | 39.35729 | -82.13124 | 39755 ft | 356 kts | 326° |
| 2026-05-06 01:33 | 39.37928 | -82.14363 | 39450 ft | 341 kts | 325° |
| 2026-05-06 01:33 | 39.40131 | -82.15616 | 39104 ft | 333 kts | 325° |
| 2026-05-06 01:33 | 39.42249 | -82.16824 | 38520 ft | 333 kts | 325° |
| 2026-05-06 01:34 | 39.44281 | -82.17988 | 37878 ft | 334 kts | 324° |
| 2026-05-06 01:34 | 39.46410 | -82.19206 | 37189 ft | 335 kts | 324° |
| 2026-05-06 01:34 | 39.48564 | -82.20441 | 36449 ft | 338 kts | 325° |
| 2026-05-06 01:34 | 39.50717 | -82.21674 | 35769 ft | 339 kts | 325° |
| 2026-05-06 01:35 | 39.52874 | -82.22910 | 35045 ft | 341 kts | 326° |
| 2026-05-06 01:35 | 39.55036 | -82.24149 | 34314 ft | 343 kts | 326° |
| 2026-05-06 01:35 | 39.57233 | -82.25408 | 33514 ft | 347 kts | 326° |
| 2026-05-06 01:35 | 39.59437 | -82.26673 | 32841 ft | 350 kts | 326° |
| 2026-05-06 01:36 | 39.61673 | -82.27956 | 32091 ft | 354 kts | 327° |
| 2026-05-06 01:36 | 39.63908 | -82.29240 | 31432 ft | 357 kts | 327° |
| 2026-05-06 01:36 | 39.66177 | -82.30543 | 30719 ft | 360 kts | 327° |
| 2026-05-06 01:36 | 39.68485 | -82.31866 | 30089 ft | 362 kts | 328° |
| 2026-05-06 01:37 | 39.70811 | -82.33204 | 29370 ft | 365 kts | 328° |
| 2026-05-06 01:37 | 39.73127 | -82.34533 | 28812 ft | 363 kts | 328° |
| 2026-05-06 01:37 | 39.75409 | -82.35841 | 28334 ft | 360 kts | 327° |
| 2026-05-06 01:37 | 39.77677 | -82.37144 | 27863 ft | 356 kts | 328° |
| 2026-05-06 01:38 | 39.79946 | -82.38448 | 27341 ft | 354 kts | 328° |
| 2026-05-06 01:38 | 39.82171 | -82.39728 | 26774 ft | 353 kts | 328° |
| 2026-05-06 01:38 | 39.84415 | -82.41021 | 26246 ft | 351 kts | 328° |
| 2026-05-06 01:38 | 39.86648 | -82.42309 | 25702 ft | 349 kts | 328° |
| 2026-05-06 01:39 | 39.88847 | -82.43577 | 25199 ft | 347 kts | 328° |
| 2026-05-06 01:39 | 39.91036 | -82.44841 | 24696 ft | 345 kts | 327° |
| 2026-05-06 01:39 | 39.93233 | -82.46112 | 24126 ft | 345 kts | 328° |
| 2026-05-06 01:39 | 39.95413 | -82.47372 | 23667 ft | 341 kts | 327° |
| 2026-05-06 01:40 | 39.97554 | -82.48611 | 23172 ft | 340 kts | 328° |
| 2026-05-06 01:40 | 39.99730 | -82.49872 | 22661 ft | 338 kts | 328° |
| 2026-05-06 01:40 | 40.01869 | -82.51112 | 22150 ft | 336 kts | 327° |
| 2026-05-06 01:40 | 40.03999 | -82.52348 | 21639 ft | 334 kts | 327° |
| 2026-05-06 01:41 | 40.06109 | -82.53571 | 21186 ft | 330 kts | 327° |
| 2026-05-06 01:41 | 40.08166 | -82.54766 | 20701 ft | 327 kts | 327° |
| 2026-05-06 01:41 | 40.10244 | -82.55973 | 20222 ft | 325 kts | 327° |
| 2026-05-06 01:41 | 40.12295 | -82.57204 | 19722 ft | 318 kts | 322° |
| 2026-05-06 01:42 | 40.13954 | -82.58920 | 19208 ft | 300 kts | 303° |
| 2026-05-06 01:42 | 40.14982 | -82.61223 | 18642 ft | 287 kts | 285° |
| 2026-05-06 01:42 | 40.15371 | -82.63724 | 18167 ft | 279 kts | 272° |
| 2026-05-06 01:42 | 40.15505 | -82.66229 | 17666 ft | 278 kts | 271° |
| 2026-05-06 01:43 | 40.15638 | -82.68736 | 17205 ft | 276 kts | 271° |
| 2026-05-06 01:43 | 40.15771 | -82.71242 | 16726 ft | 275 kts | 271° |
| 2026-05-06 01:43 | 40.15901 | -82.73702 | 16245 ft | 274 kts | 270° |
| 2026-05-06 01:43 | 40.16031 | -82.76178 | 15713 ft | 274 kts | 270° |
| 2026-05-06 01:44 | 40.16160 | -82.78642 | 15248 ft | 272 kts | 270° |
| 2026-05-06 01:44 | 40.16288 | -82.81096 | 14755 ft | 273 kts | 270° |
| 2026-05-06 01:44 | 40.16416 | -82.83566 | 14303 ft | 271 kts | 270° |
| 2026-05-06 01:44 | 40.16542 | -82.86002 | 13778 ft | 272 kts | 270° |
| 2026-05-06 01:45 | 40.16668 | -82.88448 | 13355 ft | 269 kts | 270° |
| 2026-05-06 01:45 | 40.16793 | -82.90886 | 12903 ft | 268 kts | 270° |
| 2026-05-06 01:45 | 40.16917 | -82.93314 | 12452 ft | 267 kts | 270° |
| 2026-05-06 01:45 | 40.17040 | -82.95725 | 12019 ft | 265 kts | 270° |
| 2026-05-06 01:46 | 40.17161 | -82.98107 | 11598 ft | 264 kts | 270° |
| 2026-05-06 01:46 | 40.17281 | -83.00495 | 11151 ft | 262 kts | 269° |
| 2026-05-06 01:46 | 40.17392 | -83.02680 | 10969 ft | 257 kts | 269° |
| 2026-05-06 01:46 | 40.17509 | -83.05061 | 10935 ft | 261 kts | 269° |
| 2026-05-06 01:47 | 40.17626 | -83.07413 | 10937 ft | 261 kts | 269° |
| 2026-05-06 01:47 | 40.17743 | -83.09780 | 10940 ft | 261 kts | 269° |
| 2026-05-06 01:47 | 40.17860 | -83.12148 | 10938 ft | 261 kts | 269° |
| 2026-05-06 01:47 | 40.17976 | -83.14516 | 10945 ft | 261 kts | 269° |
| 2026-05-06 01:48 | 40.18092 | -83.16887 | 10946 ft | 261 kts | 269° |
| 2026-05-06 01:48 | 40.18132 | -83.19245 | 10952 ft | 258 kts | 259° |
| 2026-05-06 01:48 | 40.17458 | -83.21339 | 10954 ft | 255 kts | 231° |
| 2026-05-06 01:48 | 40.16007 | -83.22669 | 10950 ft | 260 kts | 207° |
| 2026-05-06 01:49 | 40.14286 | -83.23482 | 10950 ft | 263 kts | 203° |
| 2026-05-06 01:49 | 40.12539 | -83.24241 | 10948 ft | 263 kts | 203° |
| 2026-05-06 01:49 | 40.10801 | -83.24980 | 10954 ft | 264 kts | 203° |
| 2026-05-06 01:49 | 40.09044 | -83.25717 | 10949 ft | 264 kts | 203° |
| 2026-05-06 01:50 | 40.07302 | -83.26450 | 10947 ft | 264 kts | 203° |
| 2026-05-06 01:50 | 40.05555 | -83.27177 | 10947 ft | 264 kts | 203° |
| 2026-05-06 01:50 | 40.03814 | -83.27911 | 10952 ft | 264 kts | 203° |
| 2026-05-06 01:50 | 40.02061 | -83.28654 | 10953 ft | 264 kts | 203° |
| 2026-05-06 01:51 | 40.00484 | -83.29318 | 10953 ft | 264 kts | 203° |
| 2026-05-06 01:51 | 39.98717 | -83.30061 | 10952 ft | 264 kts | 203° |
| 2026-05-06 01:51 | 39.96968 | -83.30787 | 10952 ft | 263 kts | 203° |
| 2026-05-06 01:51 | 39.95217 | -83.31516 | 10952 ft | 263 kts | 203° |
| 2026-05-06 01:52 | 39.93480 | -83.32239 | 10950 ft | 263 kts | 203° |
| 2026-05-06 01:52 | 39.91730 | -83.32964 | 10951 ft | 263 kts | 203° |
| 2026-05-06 01:52 | 39.90006 | -83.33678 | 10953 ft | 262 kts | 203° |
| 2026-05-06 01:52 | 39.88253 | -83.34411 | 10952 ft | 262 kts | 203° |
| 2026-05-06 01:53 | 39.86511 | -83.35139 | 10952 ft | 262 kts | 203° |
| 2026-05-06 01:53 | 39.84764 | -83.35867 | 10955 ft | 263 kts | 203° |
| 2026-05-06 01:53 | 39.83020 | -83.36591 | 10941 ft | 264 kts | 203° |
| 2026-05-06 01:53 | 39.81290 | -83.37315 | 10946 ft | 262 kts | 203° |
| 2026-05-06 01:54 | 39.79545 | -83.38039 | 10945 ft | 264 kts | 203° |
| 2026-05-06 01:54 | 39.77795 | -83.38768 | 10939 ft | 264 kts | 204° |
| 2026-05-06 01:54 | 39.76026 | -83.39497 | 10935 ft | 264 kts | 203° |
| 2026-05-06 01:54 | 39.74264 | -83.40220 | 10939 ft | 264 kts | 203° |
| 2026-05-06 01:55 | 39.72524 | -83.40942 | 10944 ft | 265 kts | 203° |
| 2026-05-06 01:55 | 39.70776 | -83.41682 | 10947 ft | 264 kts | 207° |
| 2026-05-06 01:55 | 39.69348 | -83.43065 | 10949 ft | 255 kts | 237° |
| 2026-05-06 01:55 | 39.68829 | -83.45252 | 10950 ft | 257 kts | 266° |
| 2026-05-06 01:56 | 39.68912 | -83.47567 | 10943 ft | 260 kts | 269° |
| 2026-05-06 01:56 | 39.69025 | -83.49916 | 10938 ft | 260 kts | 269° |
| 2026-05-06 01:56 | 39.69130 | -83.52230 | 10937 ft | 260 kts | 269° |
| 2026-05-06 01:56 | 39.69229 | -83.54604 | 10929 ft | 261 kts | 268° |
| 2026-05-06 01:57 | 39.69306 | -83.56928 | 10928 ft | 260 kts | 268° |
| 2026-05-06 01:57 | 39.69381 | -83.59289 | 10935 ft | 260 kts | 268° |
| 2026-05-06 01:57 | 39.69453 | -83.61626 | 10933 ft | 260 kts | 269° |
| 2026-05-06 01:57 | 39.69524 | -83.63979 | 10938 ft | 261 kts | 268° |
| 2026-05-06 01:58 | 39.69593 | -83.66310 | 10928 ft | 260 kts | 268° |
| 2026-05-06 01:58 | 39.69661 | -83.68652 | 10931 ft | 259 kts | 268° |
| 2026-05-06 01:58 | 39.69729 | -83.70967 | 10880 ft | 252 kts | 267° |
| 2026-05-06 01:58 | 39.69794 | -83.73238 | 10401 ft | 254 kts | 268° |
| 2026-05-06 01:59 | 39.69856 | -83.75533 | 9851 ft | 257 kts | 267° |
| 2026-05-06 01:59 | 39.69919 | -83.77853 | 9379 ft | 257 kts | 267° |
| 2026-05-06 01:59 | 39.69981 | -83.80132 | 8977 ft | 254 kts | 267° |
| 2026-05-06 01:59 | 39.70043 | -83.82416 | 8642 ft | 251 kts | 267° |
| 2026-05-06 02:00 | 39.70102 | -83.84699 | 8306 ft | 254 kts | 267° |
| 2026-05-06 02:00 | 39.70161 | -83.86980 | 7968 ft | 255 kts | 267° |
| 2026-05-06 02:00 | 39.70220 | -83.89284 | 7624 ft | 255 kts | 268° |
| 2026-05-06 02:00 | 39.70279 | -83.91602 | 7284 ft | 256 kts | 267° |
| 2026-05-06 02:01 | 39.70337 | -83.93906 | 6953 ft | 256 kts | 268° |
| 2026-05-06 02:01 | 39.70395 | -83.96198 | 6608 ft | 255 kts | 268° |
| 2026-05-06 02:01 | 39.70452 | -83.98507 | 6271 ft | 254 kts | 268° |
| 2026-05-06 02:01 | 39.70507 | -84.00781 | 5946 ft | 254 kts | 269° |
| 2026-05-06 02:02 | 39.70563 | -84.03089 | 5589 ft | 258 kts | 270° |
| 2026-05-06 02:02 | 39.70621 | -84.05469 | 5266 ft | 259 kts | 270° |
| 2026-05-06 02:02 | 39.70674 | -84.07848 | 4908 ft | 262 kts | 271° |
| 2026-05-06 02:02 | 39.70730 | -84.10197 | 4558 ft | 262 kts | 271° |
| 2026-05-06 02:03 | 39.70786 | -84.12558 | 4213 ft | 263 kts | 273° |
| 2026-05-06 02:03 | 39.70842 | -84.14938 | 3864 ft | 265 kts | 274° |
| 2026-05-06 02:03 | 39.71131 | -84.17290 | 3507 ft | 264 kts | 290° |
| 2026-05-06 02:03 | 39.72059 | -84.19293 | 3152 ft | 256 kts | 320° |
| 2026-05-06 02:04 | 39.73561 | -84.20418 | 3046 ft | 242 kts | 347° |
| 2026-05-06 02:04 | 39.75135 | -84.20667 | 3070 ft | 217 kts | 2° |
| 2026-05-06 02:04 | 39.76572 | -84.20708 | 3080 ft | 199 kts | 1° |
| 2026-05-06 02:04 | 39.77862 | -84.20751 | 3050 ft | 170 kts | 2° |
| 2026-05-06 02:05 | 39.78965 | -84.20790 | 3027 ft | 151 kts | 2° |
| 2026-05-06 02:05 | 39.80006 | -84.20821 | 2784 ft | 143 kts | 1° |
| 2026-05-06 02:05 | 39.80980 | -84.20852 | 2642 ft | 139 kts | 0° |
| 2026-05-06 02:05 | 39.81936 | -84.20882 | 2442 ft | 136 kts | 359° |
| 2026-05-06 02:06 | 39.82888 | -84.20913 | 2265 ft | 137 kts | 358° |
| 2026-05-06 02:06 | 39.83839 | -84.20945 | 2080 ft | 135 kts | 358° |
| 2026-05-06 02:06 | 39.84788 | -84.20976 | 1892 ft | 135 kts | 357° |
| 2026-05-06 02:06 | 39.85724 | -84.21008 | 1716 ft | 135 kts | 357° |
| 2026-05-06 02:07 | 39.86671 | -84.21040 | 1533 ft | 135 kts | 357° |
| 2026-05-06 02:07 | 39.87613 | -84.21071 | 1360 ft | 135 kts | 357° |
| 2026-05-06 02:07 | 39.88535 | -84.21101 | 1292 ft | 133 kts | 357° |
| 2026-05-06 02:07 | 39.89617 | -84.21123 | 1938 ft | 181 kts | 358° |
| 2026-05-06 02:08 | 39.91059 | -84.21119 | 2807 ft | 239 kts | 1° |
| 2026-05-06 02:08 | 39.92707 | -84.21113 | 3681 ft | 219 kts | 0° |
| 2026-05-06 02:08 | 39.94295 | -84.21133 | 4143 ft | 256 kts | 5° |
| 2026-05-06 02:08 | 39.96032 | -84.20412 | 4803 ft | 266 kts | 32° |
| 2026-05-06 02:09 | 39.97277 | -84.18677 | 4944 ft | 263 kts | 64° |
| 2026-05-06 02:09 | 39.97723 | -84.16400 | 4969 ft | 260 kts | 85° |
| 2026-05-06 02:09 | 39.97937 | -84.14066 | 4973 ft | 262 kts | 84° |
| 2026-05-06 02:09 | 39.98161 | -84.11704 | 4969 ft | 262 kts | 84° |
| 2026-05-06 02:10 | 39.98110 | -84.09367 | 4967 ft | 260 kts | 108° |
| 2026-05-06 02:10 | 39.97176 | -84.07399 | 4964 ft | 256 kts | 141° |
| 2026-05-06 02:10 | 39.95595 | -84.06409 | 4959 ft | 252 kts | 169° |
| 2026-05-06 02:10 | 39.93854 | -84.06045 | 4958 ft | 252 kts | 173° |
| 2026-05-06 02:11 | 39.92111 | -84.05741 | 4957 ft | 252 kts | 174° |
| 2026-05-06 02:11 | 39.90364 | -84.05444 | 4958 ft | 253 kts | 172° |
| 2026-05-06 02:11 | 39.88628 | -84.05128 | 4939 ft | 249 kts | 173° |
| 2026-05-06 02:11 | 39.86922 | -84.04849 | 4551 ft | 247 kts | 173° |
| 2026-05-06 02:12 | 39.85198 | -84.04593 | 3987 ft | 253 kts | 173° |
| 2026-05-06 02:12 | 39.83431 | -84.04375 | 3416 ft | 258 kts | 173° |
| 2026-05-06 02:12 | 39.81633 | -84.04192 | 3030 ft | 256 kts | 173° |
| 2026-05-06 02:12 | 39.79865 | -84.04017 | 2942 ft | 259 kts | 173° |
| 2026-05-06 02:13 | 39.78050 | -84.03834 | 2946 ft | 259 kts | 173° |
| 2026-05-06 02:13 | 39.76266 | -84.03658 | 2949 ft | 259 kts | 173° |
| 2026-05-06 02:13 | 39.74457 | -84.03634 | 2948 ft | 261 kts | 188° |
| 2026-05-06 02:13 | 39.72821 | -84.04642 | 2952 ft | 259 kts | 223° |
| 2026-05-06 02:14 | 39.71919 | -84.06531 | 2965 ft | 237 kts | 259° |
| 2026-05-06 02:14 | 39.71799 | -84.08588 | 2966 ft | 228 kts | 272° |
| 2026-05-06 02:14 | 39.71811 | -84.10653 | 2954 ft | 228 kts | 274° |
| 2026-05-06 02:14 | 39.71826 | -84.12701 | 2953 ft | 227 kts | 274° |
| 2026-05-06 02:15 | 39.71841 | -84.14748 | 2954 ft | 226 kts | 274° |
| 2026-05-06 02:15 | 39.72153 | -84.16712 | 2952 ft | 218 kts | 304° |
| 2026-05-06 02:15 | 39.73145 | -84.18153 | 2955 ft | 212 kts | 322° |
| 2026-05-06 02:15 | 39.74249 | -84.19398 | 2954 ft | 212 kts | 324° |
| 2026-05-06 02:16 | 39.75437 | -84.20498 | 2953 ft | 207 kts | 343° |
| 2026-05-06 02:16 | 39.76847 | -84.20757 | 2953 ft | 204 kts | 1° |
| 2026-05-06 02:16 | 39.78278 | -84.20768 | 2957 ft | 206 kts | 1° |
| 2026-05-06 02:16 | 39.79732 | -84.20806 | 2843 ft | 207 kts | 0° |
| 2026-05-06 02:17 | 39.81117 | -84.20853 | 2563 ft | 191 kts | 360° |
| 2026-05-06 02:17 | 39.82365 | -84.20896 | 2330 ft | 166 kts | 360° |
| 2026-05-06 02:17 | 39.83483 | -84.20933 | 2133 ft | 158 kts | 359° |
| 2026-05-06 02:17 | 39.84559 | -84.20968 | 1929 ft | 146 kts | 359° |
| 2026-05-06 02:18 | 39.85502 | -84.20998 | 1782 ft | 126 kts | 358° |
| 2026-05-06 02:18 | 39.86367 | -84.21028 | 1573 ft | 121 kts | 358° |
| 2026-05-06 02:18 | 39.87207 | -84.21053 | 1485 ft | 131 kts | 359° |
| 2026-05-06 02:18 | 39.88273 | -84.21046 | 1972 ft | 175 kts | 0° |
| 2026-05-06 02:19 | 39.89548 | -84.21037 | 3135 ft | 190 kts | 1° |
| 2026-05-06 02:19 | 39.90863 | -84.21057 | 4310 ft | 212 kts | 0° |
| 2026-05-06 02:19 | 39.92491 | -84.21035 | 4738 ft | 248 kts | 0° |
| 2026-05-06 02:19 | 39.94223 | -84.20972 | 4846 ft | 248 kts | 0° |
| 2026-05-06 02:20 | 39.97663 | -84.20855 | 4860 ft | 248 kts | 0° |
| 2026-05-06 02:20 | 39.99354 | -84.20477 | 4869 ft | 248 kts | 25° |
| 2026-05-06 02:20 | 40.00645 | -84.19016 | 4885 ft | 252 kts | 59° |
| 2026-05-06 02:21 | 40.01163 | -84.16684 | 5582 ft | 286 kts | 83° |
| 2026-05-06 02:21 | 40.01436 | -84.14223 | 7326 ft | 284 kts | 84° |
| 2026-05-06 02:21 | 40.01753 | -84.11684 | 8781 ft | 294 kts | 84° |
| 2026-05-06 02:21 | 40.02117 | -84.09036 | 9964 ft | 307 kts | 84° |
| 2026-05-06 02:22 | 40.02517 | -84.06262 | 10618 ft | 315 kts | 83° |
| 2026-05-06 02:22 | 40.02916 | -84.03437 | 10872 ft | 316 kts | 83° |
| 2026-05-06 02:22 | 40.03300 | -84.00628 | 10941 ft | 316 kts | 84° |
| 2026-05-06 02:22 | 40.03686 | -83.97817 | 10963 ft | 315 kts | 83° |
| 2026-05-06 02:23 | 40.04075 | -83.94991 | 10945 ft | 314 kts | 83° |
| 2026-05-06 02:23 | 40.04451 | -83.92191 | 10949 ft | 314 kts | 83° |
| 2026-05-06 02:23 | 40.04721 | -83.89371 | 10952 ft | 309 kts | 96° |
| 2026-05-06 02:23 | 40.04520 | -83.86609 | 10948 ft | 305 kts | 103° |
| 2026-05-06 02:24 | 40.04251 | -83.83858 | 10944 ft | 306 kts | 103° |
| 2026-05-06 02:24 | 40.03982 | -83.81107 | 10932 ft | 305 kts | 103° |
| 2026-05-06 02:24 | 40.03722 | -83.78365 | 10937 ft | 304 kts | 103° |
| 2026-05-06 02:24 | 40.03451 | -83.75645 | 10925 ft | 304 kts | 103° |
| 2026-05-06 02:25 | 40.03174 | -83.72913 | 10924 ft | 304 kts | 103° |
| 2026-05-06 02:25 | 40.02900 | -83.70171 | 10924 ft | 303 kts | 103° |
| 2026-05-06 02:25 | 40.02639 | -83.67456 | 10932 ft | 304 kts | 102° |
| 2026-05-06 02:25 | 40.02361 | -83.64747 | 10918 ft | 304 kts | 103° |
| 2026-05-06 02:26 | 40.02083 | -83.62020 | 10947 ft | 305 kts | 103° |
| 2026-05-06 02:26 | 40.01812 | -83.59255 | 10924 ft | 305 kts | 103° |
| 2026-05-06 02:26 | 40.01538 | -83.56519 | 10928 ft | 304 kts | 103° |
| 2026-05-06 02:26 | 40.01266 | -83.53802 | 10980 ft | 304 kts | 103° |
| 2026-05-06 02:27 | 40.00995 | -83.51048 | 10931 ft | 305 kts | 103° |
| 2026-05-06 02:27 | 40.00731 | -83.48302 | 10943 ft | 305 kts | 102° |
| 2026-05-06 02:27 | 40.00462 | -83.45586 | 10928 ft | 305 kts | 103° |
| 2026-05-06 02:27 | 40.00189 | -83.42832 | 10955 ft | 305 kts | 103° |
| 2026-05-06 02:28 | 39.99919 | -83.40104 | 10950 ft | 305 kts | 103° |
| 2026-05-06 02:28 | 39.99655 | -83.37350 | 10953 ft | 306 kts | 102° |
| 2026-05-06 02:28 | 39.99392 | -83.34586 | 10935 ft | 305 kts | 103° |
| 2026-05-06 02:28 | 39.99133 | -83.31857 | 10952 ft | 304 kts | 103° |
| 2026-05-06 02:29 | 39.98873 | -83.29132 | 10951 ft | 304 kts | 103° |
| 2026-05-06 02:29 | 39.98609 | -83.26403 | 10956 ft | 304 kts | 103° |
| 2026-05-06 02:29 | 39.98340 | -83.23661 | 10951 ft | 303 kts | 103° |
| 2026-05-06 02:29 | 39.98075 | -83.20950 | 10954 ft | 302 kts | 103° |
| 2026-05-06 02:30 | 39.97814 | -83.18257 | 10755 ft | 296 kts | 103° |
| 2026-05-06 02:30 | 39.97556 | -83.15605 | 10341 ft | 297 kts | 103° |
| 2026-05-06 02:30 | 39.97308 | -83.12933 | 9989 ft | 296 kts | 103° |
| 2026-05-06 02:30 | 39.97063 | -83.10274 | 9624 ft | 295 kts | 102° |
| 2026-05-06 02:31 | 39.96822 | -83.07650 | 9307 ft | 292 kts | 103° |
| 2026-05-06 02:31 | 39.96584 | -83.05024 | 8907 ft | 287 kts | 103° |
| 2026-05-06 02:31 | 39.96363 | -83.02465 | 8390 ft | 287 kts | 102° |
| 2026-05-06 02:31 | 39.96142 | -82.99871 | 7876 ft | 284 kts | 103° |
| 2026-05-06 02:32 | 39.95930 | -82.97351 | 7417 ft | 279 kts | 103° |
| 2026-05-06 02:32 | 39.95731 | -82.94855 | 6913 ft | 277 kts | 103° |
| 2026-05-06 02:32 | 39.95543 | -82.92413 | 6648 ft | 263 kts | 103° |
| 2026-05-06 02:32 | 39.95370 | -82.90092 | 6382 ft | 253 kts | 103° |
| 2026-05-06 02:33 | 39.95211 | -82.87812 | 5963 ft | 251 kts | 102° |
| 2026-05-06 02:33 | 39.95106 | -82.86307 | 5700 ft | 246 kts | 102° |
| 2026-05-06 02:34 | 39.94521 | -82.79134 | 3628 ft | 236 kts | 102° |
| 2026-05-06 02:34 | 39.94311 | -82.77044 | 3115 ft | 229 kts | 102° |
| 2026-05-06 02:34 | 39.94075 | -82.74995 | 2963 ft | 230 kts | 102° |
| 2026-05-06 02:34 | 39.93824 | -82.72929 | 2973 ft | 230 kts | 102° |
| 2026-05-06 02:35 | 39.93605 | -82.70871 | 2959 ft | 232 kts | 96° |
| 2026-05-06 02:35 | 39.94012 | -82.68844 | 2958 ft | 238 kts | 59° |
| 2026-05-06 02:35 | 39.95271 | -82.67455 | 2956 ft | 239 kts | 20° |
| 2026-05-06 02:35 | 39.96861 | -82.67275 | 2959 ft | 229 kts | 342° |
| 2026-05-06 02:36 | 39.98143 | -82.68340 | 2961 ft | 215 kts | 301° |
| 2026-05-06 02:36 | 39.98501 | -82.70136 | 2968 ft | 205 kts | 261° |
| 2026-05-06 02:36 | 39.98316 | -82.71925 | 2961 ft | 190 kts | 264° |
| 2026-05-06 02:36 | 39.98388 | -82.73592 | 2835 ft | 182 kts | 270° |
| 2026-05-06 02:37 | 39.98474 | -82.75215 | 2626 ft | 172 kts | 270° |
| 2026-05-06 02:37 | 39.98555 | -82.76703 | 2409 ft | 158 kts | 271° |
| 2026-05-06 02:37 | 39.98634 | -82.78113 | 2194 ft | 154 kts | 272° |
| 2026-05-06 02:37 | 39.98712 | -82.79511 | 1998 ft | 155 kts | 272° |
| 2026-05-06 02:38 | 39.98792 | -82.80899 | 1800 ft | 148 kts | 273° |
| 2026-05-06 02:38 | 39.98866 | -82.82169 | 1636 ft | 132 kts | 273° |
| 2026-05-06 02:38 | 39.98929 | -82.83308 | 1454 ft | 124 kts | 272° |
| 2026-05-06 02:38 | 39.98985 | -82.84413 | 1290 ft | 122 kts | 273° |
| 2026-05-06 02:39 | 39.99049 | -82.85516 | 1118 ft | 122 kts | 274° |
| 2026-05-06 02:39 | 39.99112 | -82.86616 | 963 ft | 122 kts | 274° |
| 2026-05-06 02:39 | 39.99186 | -82.87729 | 813 ft | 120 kts | 272° |
| 2026-05-06 02:39 | 39.99232 | -82.88553 | 812 ft | 59 kts | 273° |
| 2026-05-06 02:40 | 39.99254 | -82.88952 | 812 ft | 40 kts | 274° |
| 2026-05-06 02:40 | 39.99226 | -82.89114 | 812 ft | 11 kts | 194° |
| 2026-05-06 02:40 | 39.99192 | -82.89123 | 812 ft | 0 kts | 191° |
| 2026-05-06 02:40 | 39.99176 | -82.89131 | 812 ft | 4 kts | 214° |
| 2026-05-06 02:41 | 39.99164 | -82.89150 | 812 ft | 2 kts | 242° |
| 2026-05-06 02:41 | 39.99160 | -82.89161 | 812 ft | 3 kts | 250° |
| 2026-05-06 02:41 | 39.99143 | -82.89210 | 812 ft | 8 kts | 224° |
| 2026-05-06 02:41 | 39.99078 | -82.89236 | 810 ft | 10 kts | 227° |
| 2026-05-06 02:42 | 39.99077 | -82.89317 | 811 ft | 2 kts | 269° |